Time;durP1;ratioP1;P1;durP2;ratioP2;P2;SDS_P1;SDS_P2;PMS_P1;PMS_P2;Temp;Humidity;BMP_temperature;BMP_pressure;BME280_temperature;BME280_humidity;BME280_pressure;Samples;Min_cycle;Max_cycle;Signal;HPM_P1;HPM_P2
2021/01/07 00:00:53;;;;;;;9.98;8.98;;;22.30;99.90;;;;;;5074392;28;20021;-64
2021/01/07 00:03:21;;;;;;;10.02;9.07;;;22.20;99.90;;;;;;5076114;28;20078;-64
2021/01/07 00:05:49;;;;;;;9.63;8.90;;;22.10;99.90;;;;;;5075991;28;20032;-63
2021/01/07 00:08:16;;;;;;;9.20;8.60;;;22.00;99.90;;;;;;5075685;28;20041;-69
2021/01/07 00:10:44;;;;;;;10.00;9.18;;;21.90;99.90;;;;;;5076023;28;20029;-67
2021/01/07 00:13:12;;;;;;;10.10;9.30;;;21.80;99.90;;;;;;5075813;28;20392;-63
2021/01/07 00:15:40;;;;;;;9.20;8.57;;;21.70;99.90;;;;;;5075571;28;20021;-69
2021/01/07 00:18:08;;;;;;;9.40;8.73;;;21.60;99.90;;;;;;5075898;28;20036;-65
2021/01/07 00:20:36;;;;;;;10.15;9.20;;;21.80;99.90;;;;;;5076007;28;20029;-64
2021/01/07 00:23:04;;;;;;;9.85;8.95;;;22.00;99.90;;;;;;5075763;28;20096;-66
2021/01/07 00:25:40;;;;;;;9.93;8.98;;;22.00;99.90;;;;;;5075648;28;20037;-64
2021/01/07 00:28:08;;;;;;;9.30;8.80;;;21.80;99.90;;;;;;5075522;28;20496;-64
2021/01/07 00:30:36;;;;;;;9.60;8.90;;;22.00;99.90;;;;;;5075632;28;20028;-64
2021/01/07 00:33:06;;;;;;;9.60;8.88;;;22.10;99.90;;;;;;5075597;28;20024;-66
2021/01/07 00:35:34;;;;;;;8.65;8.15;;;22.20;99.90;;;;;;5075241;28;20032;-66
2021/01/07 00:38:02;;;;;;;9.40;8.80;;;22.50;99.90;;;;;;5075524;28;20029;-63
2021/01/07 00:40:31;;;;;;;9.00;8.18;;;22.70;99.90;;;;;;5075349;28;20028;-61
2021/01/07 00:42:59;;;;;;;9.38;8.63;;;22.50;99.90;;;;;;5073773;28;20021;-62
2021/01/07 00:45:28;;;;;;;10.13;9.25;;;22.70;99.90;;;;;;5075314;28;20074;-62
2021/01/07 00:47:56;;;;;;;9.23;8.60;;;22.80;99.90;;;;;;5074943;28;20112;-62
2021/01/07 00:50:24;;;;;;;9.30;8.50;;;22.80;99.90;;;;;;5075145;28;20029;-63
2021/01/07 00:52:53;;;;;;;9.73;8.85;;;22.80;99.90;;;;;;5075011;28;20020;-63
2021/01/07 00:55:20;;;;;;;10.10;9.20;;;22.70;99.90;;;;;;5074957;28;20021;-61
2021/01/07 00:57:48;;;;;;;8.98;8.48;;;22.60;99.90;;;;;;5074780;28;20027;-62
2021/01/07 01:00:22;;;;;;;9.45;8.65;;;22.40;99.90;;;;;;5074652;28;20041;-62
2021/01/07 01:02:59;;;;;;;9.48;8.77;;;22.40;99.90;;;;;;5074959;28;20044;-63
2021/01/07 01:05:27;;;;;;;9.65;9.15;;;22.90;99.90;;;;;;5074161;28;20039;-63
2021/01/07 01:07:55;;;;;;;8.60;8.10;;;23.50;99.90;;;;;;5074507;28;20036;-64
2021/01/07 01:10:23;;;;;;;8.40;8.00;;;23.70;99.90;;;;;;5056419;28;20401;-61
2021/01/07 01:12:51;;;;;;;8.80;8.30;;;23.50;99.90;;;;;;5074516;28;20020;-63
2021/01/07 01:15:19;;;;;;;8.68;8.18;;;23.30;99.90;;;;;;5073072;28;20404;-65
2021/01/07 01:17:48;;;;;;;8.82;8.35;;;22.90;99.90;;;;;;5074648;28;20020;-63
2021/01/07 01:20:16;;;;;;;9.02;8.43;;;22.40;99.90;;;;;;5074704;28;20029;-68
2021/01/07 01:22:45;;;;;;;8.75;8.35;;;22.30;99.90;;;;;;5074540;28;20381;-62
2021/01/07 01:25:14;;;;;;;9.27;8.57;;;22.10;99.90;;;;;;5074495;28;20021;-64
2021/01/07 01:27:45;;;;;;;8.93;8.52;;;21.90;99.90;;;;;;5074462;28;20021;-65
2021/01/07 01:30:15;;;;;;;9.00;8.60;;;22.00;99.90;;;;;;5056221;28;20452;-66
2021/01/07 01:32:44;;;;;;;9.18;8.68;;;21.80;99.90;;;;;;5074446;28;20082;-63
2021/01/07 01:35:14;;;;;;;8.95;8.38;;;21.60;99.90;;;;;;5073913;28;20032;-63
2021/01/07 01:37:43;;;;;;;9.05;8.55;;;21.50;99.90;;;;;;5074085;28;20020;-64
2021/01/07 01:40:13;;;;;;;9.00;8.50;;;21.20;99.90;;;;;;5073932;28;20021;-66
2021/01/07 01:42:41;;;;;;;9.50;9.00;;;21.20;99.90;;;;;;5074056;28;20253;-63
2021/01/07 01:45:10;;;;;;;9.93;9.40;;;21.20;99.90;;;;;;5073891;28;20020;-64
2021/01/07 01:47:38;;;;;;;9.75;9.30;;;21.20;99.90;;;;;;5073736;28;20031;-63
2021/01/07 01:50:06;;;;;;;10.30;9.70;;;20.90;99.90;;;;;;5056166;28;20025;-63
2021/01/07 01:52:37;;;;;;;10.30;9.80;;;20.70;99.90;;;;;;5074009;28;20070;-65
2021/01/07 01:55:05;;;;;;;10.20;9.60;;;20.60;99.90;;;;;;5074004;28;20062;-64
2021/01/07 01:57:34;;;;;;;11.10;10.40;;;20.50;99.90;;;;;;5072462;28;20025;-65
2021/01/07 02:00:01;;;;;;;11.13;10.32;;;20.30;99.90;;;;;;5073455;28;20470;-64
2021/01/07 02:02:29;;;;;;;11.43;10.65;;;20.10;99.90;;;;;;5073604;28;20028;-65
2021/01/07 02:04:57;;;;;;;10.88;10.27;;;20.10;99.90;;;;;;5073405;28;20031;-65
2021/01/07 02:07:27;;;;;;;10.45;9.85;;;20.10;99.90;;;;;;5073765;28;20031;-65
2021/01/07 02:09:56;;;;;;;10.10;9.60;;;20.10;99.90;;;;;;5073571;28;20036;-66
2021/01/07 02:12:24;;;;;;;9.90;9.40;;;20.20;99.90;;;;;;5073733;28;20090;-66
2021/01/07 02:14:51;;;;;;;9.93;9.50;;;20.20;99.90;;;;;;5073407;28;20020;-66
2021/01/07 02:17:19;;;;;;;9.30;8.90;;;20.30;99.90;;;;;;5072968;28;20025;-67
2021/01/07 02:19:47;;;;;;;10.10;9.60;;;20.40;99.90;;;;;;5073616;28;20536;-65
2021/01/07 02:22:14;;;;;;;9.93;9.50;;;20.50;99.90;;;;;;5072087;28;20046;-65
2021/01/07 02:24:42;;;;;;;10.35;9.70;;;20.70;99.90;;;;;;5073640;28;20115;-65
2021/01/07 02:27:13;;;;;;;10.65;9.98;;;20.80;99.90;;;;;;5073613;28;20033;-63
2021/01/07 02:29:41;;;;;;;11.98;10.70;;;20.90;99.90;;;;;;5072079;28;20028;-63
2021/01/07 02:32:12;;;;;;;11.23;10.43;;;21.00;99.90;;;;;;5073308;28;20053;-64
2021/01/07 02:34:39;;;;;;;;;;;21.30;99.90;;;;;;5055635;28;20055;-66
2021/01/07 02:37:06;;;;;;;9.85;9.20;;;21.60;99.90;;;;;;5073716;28;19927;-65
2021/01/07 02:39:34;;;;;;;10.55;9.75;;;21.70;99.90;;;;;;5073551;28;20028;-66
2021/01/07 02:42:02;;;;;;;9.93;9.13;;;21.90;99.90;;;;;;5073032;28;20389;-64
2021/01/07 02:44:30;;;;;;;10.00;9.20;;;22.10;99.90;;;;;;5073423;28;20028;-64
2021/01/07 02:46:58;;;;;;;9.70;9.02;;;22.20;99.90;;;;;;5073391;28;20082;-65
2021/01/07 02:49:26;;;;;;;8.68;8.25;;;22.10;99.90;;;;;;5073431;28;20048;-65
2021/01/07 02:51:53;;;;;;;8.77;8.30;;;21.90;99.90;;;;;;5073103;28;20071;-65
2021/01/07 02:54:21;;;;;;;9.13;8.52;;;21.70;99.90;;;;;;5070895;28;20124;-63
2021/01/07 02:56:49;;;;;;;10.13;9.30;;;21.40;99.90;;;;;;5070990;28;20101;-64
2021/01/07 02:59:17;;;;;;;10.30;9.38;;;21.10;99.90;;;;;;5070870;28;20493;-64
2021/01/07 03:01:45;;;;;;;8.60;8.10;;;20.90;99.90;;;;;;5070860;28;20056;-63
2021/01/07 03:04:12;;;;;;;9.32;8.43;;;20.50;99.90;;;;;;5070817;28;20025;-64
2021/01/07 03:06:40;;;;;;;9.02;8.38;;;20.50;99.90;;;;;;5070793;28;20494;-64
2021/01/07 03:09:07;;;;;;;7.85;7.30;;;20.40;99.90;;;;;;5070826;28;20072;-64
2021/01/07 03:11:36;;;;;;;8.73;8.13;;;20.40;99.90;;;;;;5070841;28;20567;-65
2021/01/07 03:14:04;;;;;;;9.50;8.82;;;20.30;99.90;;;;;;5070747;28;20041;-63
2021/01/07 03:16:31;;;;;;;9.30;8.60;;;20.50;99.90;;;;;;5070559;28;20035;-63
2021/01/07 03:18:59;;;;;;;9.57;8.90;;;20.60;99.90;;;;;;5070859;28;20021;-63
2021/01/07 03:21:34;;;;;;;9.48;8.63;;;20.70;99.90;;;;;;5070803;28;20031;-63
2021/01/07 03:24:02;;;;;;;8.80;8.20;;;20.80;99.90;;;;;;5070913;28;20024;-63
2021/01/07 03:26:29;;;;;;;9.00;8.50;;;20.80;99.90;;;;;;5072745;28;20033;-63
2021/01/07 03:29:00;;;;;;;8.93;8.15;;;20.80;99.90;;;;;;5075655;28;20027;-64
2021/01/07 03:31:27;;;;;;;8.95;8.10;;;20.90;99.90;;;;;;5076780;28;20028;-62
2021/01/07 03:33:55;;;;;;;8.27;7.60;;;20.90;99.90;;;;;;5076730;28;20028;-63
2021/01/07 03:36:22;;;;;;;8.05;7.47;;;20.90;99.90;;;;;;5058211;28;20032;-64
2021/01/07 03:38:50;;;;;;;8.50;7.90;;;21.00;99.90;;;;;;5076637;28;20020;-67
2021/01/07 03:41:17;;;;;;;10.65;9.85;;;21.60;99.90;;;;;;5076347;28;20043;-65
2021/01/07 03:43:45;;;;;;;9.30;8.70;;;22.00;99.90;;;;;;5076502;28;20078;-63
2021/01/07 03:46:12;;;;;;;8.35;8.00;;;22.30;99.90;;;;;;5074974;28;20021;-63
2021/01/07 03:48:40;;;;;;;7.57;7.28;;;22.30;99.90;;;;;;5076352;28;20032;-65
2021/01/07 03:51:08;;;;;;;7.80;7.50;;;22.20;99.90;;;;;;5076258;28;20033;-63
2021/01/07 03:53:36;;;;;;;7.50;7.20;;;22.20;99.90;;;;;;5076068;28;20461;-64
2021/01/07 03:56:04;;;;;;;8.30;7.78;;;22.20;99.90;;;;;;5075866;28;20039;-65
2021/01/07 03:58:31;;;;;;;8.30;7.90;;;22.20;99.90;;;;;;5075656;28;20078;-64
2021/01/07 04:00:59;;;;;;;8.35;7.80;;;22.00;99.90;;;;;;5076085;28;20075;-65
2021/01/07 04:03:27;;;;;;;8.20;7.70;;;22.00;99.90;;;;;;5076539;28;20021;-64
2021/01/07 04:05:56;;;;;;;8.07;7.63;;;21.90;99.90;;;;;;5076126;28;20374;-64
2021/01/07 04:08:24;;;;;;;7.90;7.43;;;21.90;99.90;;;;;;5076340;28;20473;-65
2021/01/07 04:10:51;;;;;;;8.27;7.78;;;21.90;99.90;;;;;;5076007;28;20057;-64
2021/01/07 04:13:20;;;;;;;7.65;7.10;;;22.00;99.90;;;;;;5075786;28;20388;-64
2021/01/07 04:15:51;;;;;;;7.57;7.00;;;22.10;99.90;;;;;;5074478;28;20127;-64
2021/01/07 04:18:19;;;;;;;8.00;7.25;;;22.30;99.90;;;;;;5075014;28;20032;-65
2021/01/07 04:20:50;;;;;;;7.75;7.20;;;22.20;99.90;;;;;;5074605;28;20476;-64
2021/01/07 04:23:18;;;;;;;7.70;7.20;;;22.30;99.90;;;;;;5057878;28;20452;-65
2021/01/07 04:25:46;;;;;;;7.38;6.97;;;22.50;99.90;;;;;;5074626;28;20108;-65
2021/01/07 04:28:14;;;;;;;8.02;7.53;;;22.70;99.90;;;;;;5075665;28;20021;-64
2021/01/07 04:30:42;;;;;;;8.57;7.90;;;22.70;99.90;;;;;;5075961;28;20449;-64
2021/01/07 04:33:10;;;;;;;9.30;8.38;;;22.80;99.90;;;;;;5057486;28;20033;-64
2021/01/07 04:35:37;;;;;;;9.38;8.60;;;23.00;99.90;;;;;;5076550;28;20490;-62
2021/01/07 04:38:05;;;;;;;9.75;8.85;;;23.20;99.90;;;;;;5075323;28;20437;-63
2021/01/07 04:40:32;;;;;;;9.05;8.25;;;23.40;99.90;;;;;;5075250;28;20362;-68
2021/01/07 04:43:00;;;;;;;9.10;8.40;;;23.40;99.90;;;;;;5075297;28;20043;-64
2021/01/07 04:45:28;;;;;;;9.13;8.25;;;23.50;99.90;;;;;;5075164;28;20028;-69
2021/01/07 04:47:59;;;;;;;9.45;8.25;;;23.70;99.90;;;;;;5075267;28;20048;-68
2021/01/07 04:50:26;;;;;;;9.02;8.43;;;23.90;99.90;;;;;;5075347;28;20085;-68
2021/01/07 04:52:54;;;;;;;8.77;8.20;;;24.00;99.90;;;;;;5074972;28;20024;-68
